Time;durP1;ratioP1;P1;durP2;ratioP2;P2;SDS_P1;SDS_P2;PMS_P1;PMS_P2;Temp;Humidity;BMP_temperature;BMP_pressure;BME280_temperature;BME280_humidity;BME280_pressure;Samples;Min_cycle;Max_cycle;Signal;HPM_P1;HPM_P2
2022/07/03 00:01:49;;;;;;;1.48;0.88;;;15.50;9.00;;;;;;5105553;28;34613;-74
2022/07/03 00:04:15;;;;;;;1.10;1.02;;;15.40;9.00;;;;;;5105365;28;34196;-74
2022/07/03 00:06:41;;;;;;;1.77;1.13;;;15.40;9.10;;;;;;5100732;28;34135;-74
2022/07/03 00:09:07;;;;;;;0.85;0.85;;;15.40;9.20;;;;;;5083826;28;34176;-75
2022/07/03 00:11:33;;;;;;;1.42;0.98;;;15.30;9.30;;;;;;5084097;28;34403;-74
2022/07/03 00:13:59;;;;;;;3.20;1.02;;;15.20;9.30;;;;;;5084914;28;35331;-74
2022/07/03 00:16:26;;;;;;;0.95;0.95;;;15.20;9.40;;;;;;5084835;28;34160;-74
2022/07/03 00:18:52;;;;;;;1.23;0.93;;;15.10;9.60;;;;;;5083521;28;34168;-74
2022/07/03 00:21:28;;;;;;;0.95;0.95;;;15.10;9.60;;;;;;5084081;28;34179;-74
2022/07/03 00:24:09;;;;;;;2.80;1.13;;;15.10;11.50;;;;;;5083965;28;34478;-74
2022/07/03 00:26:39;;;;;;;0.80;0.80;;;15.00;12.30;;;;;;5046264;28;34301;-74
2022/07/03 00:29:07;;;;;;;2.13;0.90;;;15.00;10.40;;;;;;5064550;28;34000;-74
2022/07/03 00:31:33;;;;;;;1.10;1.00;;;15.00;9.90;;;;;;5064886;28;34158;-74
2022/07/03 00:34:01;;;;;;;0.85;0.85;;;15.00;10.00;;;;;;5080143;28;35538;-74
2022/07/03 00:36:33;;;;;;;0.93;0.90;;;14.90;10.10;;;;;;5085844;27;34150;-74
2022/07/03 00:38:59;;;;;;;1.65;1.10;;;14.90;10.50;;;;;;5083617;28;34284;-74
2022/07/03 00:41:28;;;;;;;1.20;1.10;;;14.90;10.20;;;;;;5083283;28;34162;-75
2022/07/03 00:43:55;;;;;;;1.90;0.98;;;14.90;10.30;;;;;;5083322;28;36339;-74
2022/07/03 00:46:24;;;;;;;0.80;0.80;;;14.90;10.30;;;;;;5083326;28;34115;-74
2022/07/03 00:48:51;;;;;;;0.95;0.95;;;14.80;10.70;;;;;;5066097;28;34203;-74
2022/07/03 00:51:23;;;;;;;5.40;0.95;;;14.80;10.40;;;;;;5083659;28;34357;-74
2022/07/03 00:53:52;;;;;;;1.00;1.00;;;14.80;10.90;;;;;;5082778;28;35857;-74
2022/07/03 00:56:28;;;;;;;0.90;0.90;;;14.70;10.60;;;;;;5082561;28;34387;-73
2022/07/03 00:58:57;;;;;;;1.27;0.90;;;14.70;10.80;;;;;;5082888;28;34238;-74
2022/07/03 01:01:29;;;;;;;1.27;0.95;;;14.60;10.60;;;;;;5084380;28;34261;-74
2022/07/03 01:04:17;;;;;;;1.23;0.98;;;14.60;11.00;;;;;;5084215;28;34321;-73
2022/07/03 01:06:52;;;;;;;2.97;1.10;;;14.50;13.70;;;;;;5083088;28;34231;-74
2022/07/03 01:09:31;;;;;;;0.70;0.70;;;14.50;12.10;;;;;;5066218;28;34224;-73
2022/07/03 01:12:05;;;;;;;2.35;1.33;;;14.50;11.50;;;;;;5082798;28;34163;-73
2022/07/03 01:14:53;;;;;;;0.95;0.95;;;14.40;11.40;;;;;;5083690;28;34114;-74
2022/07/03 01:17:26;;;;;;;1.05;0.98;;;14.40;12.30;;;;;;5083102;28;34336;-74
2022/07/03 01:20:01;;;;;;;0.93;0.93;;;14.40;11.60;;;;;;5066362;28;34078;-74
2022/07/03 01:22:33;;;;;;;1.52;1.00;;;14.30;11.60;;;;;;5083133;28;34237;-74
2022/07/03 01:25:16;;;;;;;0.98;0.93;;;14.30;11.50;;;;;;5082752;28;36052;-74
2022/07/03 01:28:08;;;;;;;0.70;0.70;;;14.30;13.60;;;;;;5065439;28;34196;-74
2022/07/03 01:30:42;;;;;;;1.35;1.20;;;14.20;14.20;;;;;;5086535;28;34029;-74
2022/07/03 01:33:15;;;;;;;0.90;0.90;;;14.20;11.60;;;;;;5066919;28;34876;-74
2022/07/03 01:35:47;;;;;;;0.90;0.90;;;14.10;11.50;;;;;;5099196;28;35575;-74
2022/07/03 01:38:14;;;;;;;0.90;0.90;;;14.10;11.40;;;;;;5066024;28;34254;-74
2022/07/03 01:40:42;;;;;;;1.58;1.10;;;14.10;11.40;;;;;;5082329;28;34204;-74
2022/07/03 01:43:11;;;;;;;1.63;1.20;;;14.00;11.50;;;;;;5066322;28;34635;-74
2022/07/03 01:45:47;;;;;;;1.30;1.20;;;14.00;11.70;;;;;;5081628;28;36013;-74
2022/07/03 01:48:14;;;;;;;1.67;1.10;;;14.00;11.60;;;;;;5084979;28;34206;-74
2022/07/03 01:50:42;;;;;;;1.08;1.00;;;13.90;11.70;;;;;;5089172;28;34201;-74
2022/07/03 01:53:10;;;;;;;2.47;1.08;;;13.90;11.70;;;;;;5089749;28;34667;-74
2022/07/03 01:55:39;;;;;;;1.05;0.95;;;13.80;11.80;;;;;;5088473;28;35622;-74
2022/07/03 01:58:06;;;;;;;1.10;1.02;;;13.80;12.10;;;;;;5088739;28;34245;-74
2022/07/03 02:00:56;;;;;;;1.02;1.02;;;13.80;11.90;;;;;;5089086;28;34269;-74
2022/07/03 02:03:28;;;;;;;1.20;1.10;;;13.90;13.60;;;;;;5071735;28;34576;-74
2022/07/03 02:06:03;;;;;;;1.92;1.00;;;13.80;13.00;;;;;;5089814;28;34519;-74
2022/07/03 02:08:48;;;;;;;1.20;1.20;;;13.80;13.40;;;;;;5088498;28;34146;-74
2022/07/03 02:11:17;;;;;;;0.90;0.90;;;13.80;13.20;;;;;;5090072;28;34030;-74
2022/07/03 02:14:01;;;;;;;1.17;1.08;;;13.70;12.30;;;;;;5089668;28;34234;-74
2022/07/03 02:16:27;;;;;;;0.90;0.90;;;13.70;13.80;;;;;;5089374;28;34220;-74
2022/07/03 02:19:03;;;;;;;0.90;0.90;;;13.70;12.50;;;;;;5089794;28;34510;-74
2022/07/03 02:21:29;;;;;;;0.98;0.98;;;13.70;13.10;;;;;;5090100;28;34122;-74
2022/07/03 02:24:26;;;;;;;1.02;0.98;;;13.70;12.40;;;;;;5072236;28;34198;-74
2022/07/03 02:27:09;;;;;;;1.17;1.08;;;13.60;14.40;;;;;;5088407;28;35713;-74
2022/07/03 02:29:46;;;;;;;1.20;1.10;;;13.60;12.90;;;;;;5088647;28;34153;-74
2022/07/03 02:32:17;;;;;;;1.17;1.10;;;13.50;13.60;;;;;;5088718;28;34297;-74
2022/07/03 02:34:47;;;;;;;3.50;1.02;;;13.40;12.80;;;;;;5089298;28;34240;-74
2022/07/03 02:37:18;;;;;;;1.13;1.05;;;13.40;12.90;;;;;;5088655;28;36487;-74
2022/07/03 02:39:53;;;;;;;1.00;1.00;;;13.40;13.40;;;;;;5088644;28;34217;-74
2022/07/03 02:42:39;;;;;;;1.10;1.00;;;13.40;13.60;;;;;;5105421;28;34135;-74
2022/07/03 02:45:07;;;;;;;1.15;1.15;;;13.40;15.30;;;;;;5088523;28;34177;-74
2022/07/03 02:47:51;;;;;;;1.00;0.90;;;13.30;13.00;;;;;;5088175;28;35624;-74
2022/07/03 02:50:21;;;;;;;0.90;0.90;;;13.30;13.70;;;;;;5089250;28;34218;-74
2022/07/03 02:53:11;;;;;;;1.80;1.05;;;13.30;13.70;;;;;;5071328;28;34096;-74
2022/07/03 02:55:43;;;;;;;0.90;0.90;;;13.30;16.60;;;;;;5074647;28;34172;-74
2022/07/03 02:58:34;;;;;;;1.73;1.20;;;13.30;13.90;;;;;;5088528;28;34307;-74
2022/07/03 03:01:09;;;;;;;0.90;0.90;;;13.20;15.80;;;;;;5083845;28;34235;-74
2022/07/03 03:03:39;;;;;;;1.23;1.13;;;13.20;14.30;;;;;;5076024;28;34236;-74
2022/07/03 03:06:13;;;;;;;2.92;1.10;;;13.20;13.40;;;;;;5084888;28;34467;-74
2022/07/03 03:08:52;;;;;;;1.10;1.00;;;13.10;13.80;;;;;;5084493;28;36813;-74
2022/07/03 03:11:29;;;;;;;1.10;1.00;;;13.10;13.90;;;;;;5084279;28;34095;-74
2022/07/03 03:13:57;;;;;;;2.20;1.38;;;13.10;14.10;;;;;;5085142;28;34246;-73
2022/07/03 03:16:23;;;;;;;1.10;1.05;;;13.10;13.50;;;;;;5088559;28;34208;-73
2022/07/03 03:18:49;;;;;;;1.25;1.15;;;13.00;13.60;;;;;;5104756;28;35999;-74
2022/07/03 03:21:18;;;;;;;1.10;1.02;;;13.00;13.60;;;;;;5104835;28;34087;-74
2022/07/03 03:23:52;;;;;;;1.35;1.02;;;13.00;13.90;;;;;;5088108;28;34618;-74
2022/07/03 03:26:21;;;;;;;1.75;1.20;;;13.00;13.80;;;;;;5086401;28;34024;-73
2022/07/03 03:28:48;;;;;;;1.17;1.13;;;13.00;13.70;;;;;;5083907;28;36649;-73
2022/07/03 03:31:15;;;;;;;1.52;1.13;;;13.00;13.60;;;;;;5084906;28;34143;-74
2022/07/03 03:33:44;;;;;;;1.63;1.13;;;13.00;13.70;;;;;;5067541;28;34061;-74
2022/07/03 03:36:11;;;;;;;1.30;1.20;;;13.00;13.70;;;;;;5106158;28;34366;-74
2022/07/03 03:38:38;;;;;;;1.40;1.30;;;12.90;13.60;;;;;;5104314;28;36765;-74
2022/07/03 03:41:05;;;;;;;1.25;1.00;;;12.90;13.80;;;;;;5092520;28;34118;-74
2022/07/03 03:43:32;;;;;;;1.10;1.02;;;12.90;13.80;;;;;;5084206;28;34349;-74
2022/07/03 03:45:58;;;;;;;1.38;1.10;;;12.80;13.80;;;;;;5084412;28;34021;-74
2022/07/03 03:48:26;;;;;;;1.00;0.90;;;12.90;14.00;;;;;;5083715;28;36275;-74
2022/07/03 03:50:53;;;;;;;2.17;1.10;;;12.80;13.90;;;;;;5084087;28;34324;-74
2022/07/03 03:53:19;;;;;;;1.30;1.20;;;12.90;14.00;;;;;;5084510;28;34174;-74
2022/07/03 03:56:01;;;;;;;1.63;1.10;;;12.80;13.90;;;;;;5085348;28;34198;-74
2022/07/03 03:58:29;;;;;;;1.40;1.30;;;12.80;16.10;;;;;;5084740;28;34586;-73
2022/07/03 04:00:57;;;;;;;1.45;1.05;;;12.80;14.10;;;;;;5084127;28;34202;-73
2022/07/03 04:03:24;;;;;;;2.38;1.25;;;12.80;14.10;;;;;;5084053;28;34095;-74
2022/07/03 04:05:49;;;;;;;1.40;1.20;;;12.80;14.00;;;;;;5085387;28;34033;-74
2022/07/03 04:08:15;;;;;;;1.30;1.20;;;12.80;14.10;;;;;;5083900;28;36454;-74
2022/07/03 04:10:41;;;;;;;2.33;1.30;;;12.80;14.20;;;;;;5083531;28;34422;-73
2022/07/03 04:13:07;;;;;;;2.42;1.35;;;12.80;14.20;;;;;;5084024;28;34374;-73
2022/07/03 04:15:33;;;;;;;1.05;1.05;;;12.70;14.30;;;;;;5083511;28;34492;-73
2022/07/03 04:18:00;;;;;;;1.58;1.48;;;12.80;14.30;;;;;;5066245;28;35769;-73
2022/07/03 04:20:26;;;;;;;1.88;1.40;;;12.80;14.50;;;;;;5083610;28;34258;-74
2022/07/03 04:22:52;;;;;;;1.27;1.23;;;12.80;14.50;;;;;;5066746;28;34190;-73
2022/07/03 04:25:18;;;;;;;1.40;1.30;;;12.70;14.60;;;;;;5083545;28;34098;-73
2022/07/03 04:27:44;;;;;;;1.55;1.25;;;12.80;14.70;;;;;;5084529;28;35382;-73
2022/07/03 04:30:11;;;;;;;1.35;1.25;;;12.80;14.80;;;;;;5083760;28;34060;-74
2022/07/03 04:32:37;;;;;;;1.55;1.20;;;12.80;14.80;;;;;;5078560;28;34200;-74
2022/07/03 04:35:04;;;;;;;3.70;1.30;;;12.80;14.80;;;;;;5079147;28;34506;-74
2022/07/03 04:37:30;;;;;;;1.40;1.30;;;12.80;14.80;;;;;;5064651;28;36631;-73
2022/07/03 04:39:56;;;;;;;1.77;1.10;;;12.80;14.80;;;;;;5084577;28;34289;-73
2022/07/03 04:42:22;;;;;;;1.23;1.10;;;12.80;14.80;;;;;;5062812;28;34098;-74
2022/07/03 04:44:48;;;;;;;1.30;1.10;;;12.80;14.90;;;;;;5064128;28;34263;-73
2022/07/03 04:47:14;;;;;;;1.65;1.30;;;12.90;14.90;;;;;;5079972;28;35806;-74
2022/07/03 04:49:41;;;;;;;1.48;1.20;;;12.90;14.80;;;;;;5046560;28;34092;-74
2022/07/03 04:52:08;;;;;;;2.05;1.20;;;13.00;14.80;;;;;;5062971;28;34344;-73
2022/07/03 04:54:35;;;;;;;1.20;1.10;;;12.90;14.90;;;;;;5063117;28;34526;-74
2022/07/03 04:57:01;;;;;;;1.75;1.40;;;12.90;15.00;;;;;;5084200;28;34154;-73
2022/07/03 04:59:26;;;;;;;1.40;1.30;;;12.90;15.00;;;;;;5082955;28;34040;-73
2022/07/03 05:01:52;;;;;;;1.15;1.10;;;13.00;15.00;;;;;;5083020;28;34124;-73
2022/07/03 05:04:18;;;;;;;1.30;1.20;;;13.10;15.00;;;;;;5066687;28;34112;-73
2022/07/03 05:06:44;;;;;;;1.30;1.20;;;13.10;15.10;;;;;;5082813;28;35626;-73
2022/07/03 05:09:10;;;;;;;1.30;1.20;;;13.20;15.10;;;;;;5083072;28;34133;-73
2022/07/03 05:11:37;;;;;;;1.65;1.08;;;13.20;15.00;;;;;;5083771;28;34455;-74
2022/07/03 05:14:04;;;;;;;1.60;1.50;;;13.30;15.10;;;;;;5082819;28;34067;-74
2022/07/03 05:16:30;;;;;;;1.42;1.33;;;13.30;15.20;;;;;;5082660;28;35583;-74
2022/07/03 05:18:57;;;;;;;1.40;1.30;;;13.40;15.20;;;;;;5082923;28;34337;-73
2022/07/03 05:21:23;;;;;;;1.60;1.50;;;13.60;15.30;;;;;;5082779;28;34112;-74
2022/07/03 05:23:49;;;;;;;3.08;1.58;;;13.90;15.20;;;;;;5099423;27;34180;-74
2022/07/03 05:26:15;;;;;;;1.60;1.45;;;14.30;15.00;;;;;;5083134;28;34385;-74
2022/07/03 05:28:41;;;;;;;2.05;1.80;;;15.10;14.30;;;;;;5083743;28;34257;-74
2022/07/03 05:31:07;;;;;;;1.52;1.42;;;16.10;13.20;;;;;;5083837;28;34273;-74
2022/07/03 05:33:33;;;;;;;1.98;1.63;;;17.20;11.50;;;;;;5083410;28;34282;-74
2022/07/03 05:35:59;;;;;;;1.48;1.38;;;18.30;10.10;;;;;;5082821;28;34186;-74
2022/07/03 05:41:06;;;;;;;1.77;1.40;;;20.30;7.20;;;;;;5082673;28;34214;-75
2022/07/03 05:43:32;;;;;;;1.20;1.10;;;21.30;5.90;;;;;;5083366;28;34219;-75
2022/07/03 05:45:58;;;;;;;1.00;1.00;;;22.10;5.00;;;;;;5082136;28;35884;-75
2022/07/03 05:48:24;;;;;;;1.40;1.13;;;22.80;4.10;;;;;;5082643;28;34055;-75
2022/07/03 05:50:50;;;;;;;1.48;1.10;;;23.40;3.30;;;;;;5082540;28;34099;-75
2022/07/03 05:53:16;;;;;;;1.05;0.95;;;24.00;2.50;;;;;;5082484;28;34516;-75
2022/07/03 05:55:42;;;;;;;3.05;1.10;;;24.50;1.70;;;;;;5081662;28;36750;-75
2022/07/03 05:58:09;;;;;;;1.02;0.90;;;24.90;1.10;;;;;;5082045;28;34093;-76
2022/07/03 06:00:35;;;;;;;1.17;1.08;;;25.40;1.00;;;;;;5083596;28;34102;-75
2022/07/03 06:03:02;;;;;;;1.05;1.05;;;25.60;1.00;;;;;;5083715;28;34178;-76
2022/07/03 06:05:28;;;;;;;1.00;1.00;;;26.00;1.00;;;;;;5081706;28;36594;-75
2022/07/03 06:07:55;;;;;;;3.22;1.33;;;26.30;1.00;;;;;;5082333;28;34189;-75
2022/07/03 06:10:21;;;;;;;1.20;1.10;;;26.40;1.00;;;;;;5082233;28;34216;-75
2022/07/03 06:12:47;;;;;;;1.10;1.00;;;26.60;1.00;;;;;;5081898;28;34495;-76
2022/07/03 06:15:13;;;;;;;1.77;1.20;;;26.80;1.00;;;;;;5082978;28;35095;-75
2022/07/03 06:17:38;;;;;;;0.95;0.90;;;27.00;1.00;;;;;;5082327;28;35198;-76
2022/07/03 06:20:06;;;;;;;1.42;0.95;;;27.20;1.00;;;;;;5081962;28;34165;-75
2022/07/03 06:22:32;;;;;;;1.15;1.05;;;27.50;1.00;;;;;;5081847;28;34443;-75
2022/07/03 06:24:59;;;;;;;1.23;1.13;;;27.50;1.00;;;;;;5081447;28;35865;-76
2022/07/03 06:27:25;;;;;;;1.10;1.10;;;27.50;1.00;;;;;;5082095;28;34357;-76
2022/07/03 06:29:51;;;;;;;1.52;1.15;;;27.70;1.00;;;;;;5081948;28;34277;-76
2022/07/03 06:32:18;;;;;;;1.27;1.20;;;27.90;1.00;;;;;;5081899;28;34195;-76
2022/07/03 06:34:44;;;;;;;1.33;0.82;;;28.10;1.00;;;;;;5082990;28;34306;-76
2022/07/03 06:37:10;;;;;;;1.85;1.30;;;28.20;1.00;;;;;;5085199;28;34088;-76
2022/07/03 06:39:36;;;;;;;1.10;1.10;;;28.40;1.00;;;;;;5068257;28;34331;-77
2022/07/03 06:42:04;;;;;;;1.33;1.10;;;28.40;1.00;;;;;;5086141;28;34216;-77
2022/07/03 06:44:30;;;;;;;1.48;1.20;;;28.70;1.00;;;;;;5064281;28;35770;-76
2022/07/03 06:46:56;;;;;;;3.13;1.10;;;29.00;1.00;;;;;;5065042;28;34276;-76
2022/07/03 06:49:23;;;;;;;1.25;1.10;;;29.40;1.00;;;;;;5065461;28;34163;-77
2022/07/03 06:51:50;;;;;;;1.15;1.15;;;29.70;1.00;;;;;;5048423;28;34536;-76
2022/07/03 06:54:16;;;;;;;1.20;1.10;;;29.90;1.00;;;;;;5047444;28;35778;-76
2022/07/03 06:56:42;;;;;;;1.83;1.10;;;29.90;1.00;;;;;;5067001;28;34107;-76
2022/07/03 06:59:08;;;;;;;1.65;1.08;;;29.70;1.00;;;;;;5086053;28;34283;-76
2022/07/03 07:01:35;;;;;;;1.60;1.40;;;29.60;1.00;;;;;;5101906;28;34447;-76
2022/07/03 07:04:02;;;;;;;2.65;1.73;;;29.40;1.00;;;;;;5085663;28;34225;-76
2022/07/03 07:06:28;;;;;;;4.35;1.08;;;29.30;1.00;;;;;;5084793;28;34141;-76
2022/07/03 07:08:54;;;;;;;1.45;1.27;;;29.50;1.00;;;;;;5085006;28;34232;-78
2022/07/03 07:11:20;;;;;;;3.63;1.10;;;29.60;1.00;;;;;;5085003;28;34088;-77
2022/07/03 07:13:46;;;;;;;2.25;1.17;;;29.80;1.00;;;;;;5085691;28;34235;-76
2022/07/03 07:16:12;;;;;;;1.20;1.10;;;29.70;1.00;;;;;;5067914;28;34219;-77
2022/07/03 07:18:42;;;;;;;4.90;1.08;;;29.60;1.00;;;;;;5064368;28;34289;-77
2022/07/03 07:21:09;;;;;;;1.23;1.00;;;29.30;1.00;;;;;;5047972;28;34486;-77
2022/07/03 07:23:35;;;;;;;1.77;1.02;;;28.90;1.00;;;;;;5064155;28;36227;-77
2022/07/03 07:26:01;;;;;;;0.98;0.98;;;28.90;1.00;;;;;;5064738;28;34109;-77
2022/07/03 07:28:28;;;;;;;1.50;1.00;;;29.10;1.00;;;;;;5064073;28;34310;-76
2022/07/03 07:30:55;;;;;;;1.10;0.93;;;29.10;1.00;;;;;;5064439;28;34551;-77
2022/07/03 07:33:21;;;;;;;1.52;0.85;;;29.10;1.00;;;;;;5047679;28;35680;-77
2022/07/03 07:35:48;;;;;;;1.75;1.08;;;29.10;1.00;;;;;;5064319;28;34282;-77
2022/07/03 07:38:14;;;;;;;1.30;0.93;;;29.10;1.00;;;;;;5064903;28;33650;-77
2022/07/03 07:40:40;;;;;;;1.60;0.90;;;29.10;1.00;;;;;;5083650;28;34409;-77
2022/07/03 07:43:06;;;;;;;1.58;0.88;;;29.30;1.00;;;;;;5088407;28;36690;-77
2022/07/03 07:45:32;;;;;;;2.35;1.00;;;29.40;1.00;;;;;;5084879;28;34060;-77
2022/07/03 07:47:58;;;;;;;1.15;1.08;;;29.50;1.00;;;;;;5083995;28;34304;-77
2022/07/03 07:50:24;;;;;;;0.98;0.93;;;29.40;1.00;;;;;;5067851;28;34508;-79
2022/07/03 07:52:50;;;;;;;0.90;0.80;;;29.30;1.00;;;;;;5084208;28;35971;-77
2022/07/03 07:55:16;;;;;;;0.90;0.90;;;29.10;1.00;;;;;;5084479;28;34250;-77
2022/07/03 07:57:42;;;;;;;1.52;1.00;;;28.90;1.00;;;;;;5084331;28;34096;-77
2022/07/03 08:00:11;;;;;;;0.88;0.85;;;28.90;1.00;;;;;;5084377;28;34135;-78
2022/07/03 08:07:59;;;;;;;2.65;1.10;;;29.70;1.00;;;;;;5084843;28;34071;-77
2022/07/03 08:10:25;;;;;;;2.22;0.90;;;30.10;1.00;;;;;;5067434;28;34488;-77
2022/07/03 08:12:51;;;;;;;1.88;1.00;;;30.20;1.00;;;;;;5083598;28;35826;-77
2022/07/03 08:15:17;;;;;;;1.30;1.00;;;30.30;1.00;;;;;;5064280;28;34162;-78
2022/07/03 08:17:43;;;;;;;0.70;0.70;;;30.20;1.00;;;;;;5072864;28;34125;-79
2022/07/03 08:20:09;;;;;;;0.80;0.80;;;30.40;1.00;;;;;;5064211;28;34105;-77
2022/07/03 08:22:35;;;;;;;3.30;1.00;;;30.60;1.00;;;;;;5081601;28;34081;-77
2022/07/03 08:25:01;;;;;;;0.80;0.80;;;30.70;1.00;;;;;;5083620;28;34252;-77
2022/07/03 08:27:27;;;;;;;1.98;0.82;;;30.70;1.00;;;;;;5100616;28;34148;-78
2022/07/03 08:29:53;;;;;;;1.15;0.73;;;30.90;1.00;;;;;;5085277;28;34420;-77
2022/07/03 08:32:19;;;;;;;0.88;0.80;;;31.10;1.00;;;;;;5096110;28;35644;-78
2022/07/03 08:34:44;;;;;;;0.93;0.65;;;31.30;1.00;;;;;;5074168;28;34133;-78
2022/07/03 08:37:10;;;;;;;1.63;0.73;;;31.30;1.00;;;;;;5073438;28;34153;-77
2022/07/03 08:39:36;;;;;;;0.80;0.80;;;31.10;1.00;;;;;;5085858;28;34207;-77
2022/07/03 08:42:03;;;;;;;0.60;0.60;;;31.20;1.00;;;;;;5068089;28;35672;-77
2022/07/03 08:44:31;;;;;;;0.50;0.50;;;31.50;1.00;;;;;;5075058;28;34329;-78
2022/07/03 08:46:59;;;;;;;1.55;0.60;;;31.70;1.00;;;;;;5075328;28;34172;-77
2022/07/03 08:49:26;;;;;;;1.23;0.70;;;32.00;1.00;;;;;;5069383;28;34100;-77
2022/07/03 08:51:53;;;;;;;0.60;0.60;;;31.70;1.00;;;;;;5069989;28;36695;-77
2022/07/03 08:54:19;;;;;;;0.50;0.50;;;31.60;1.00;;;;;;5055027;28;34095;-77
2022/07/03 08:56:46;;;;;;;3.38;0.60;;;31.80;1.00;;;;;;5085859;28;34295;-77
2022/07/03 08:59:13;;;;;;;1.38;0.50;;;31.70;1.00;;;;;;5067909;28;34153;-78
2022/07/03 09:01:42;;;;;;;0.30;0.30;;;31.70;1.00;;;;;;5070150;28;34508;-77
2022/07/03 09:04:12;;;;;;;0.77;0.50;;;31.60;1.00;;;;;;5087974;28;34282;-77
2022/07/03 09:06:40;;;;;;;0.82;0.68;;;31.50;1.00;;;;;;5068598;28;34296;-78
2022/07/03 09:09:08;;;;;;;0.77;0.63;;;31.40;1.00;;;;;;5077510;28;34373;-77
2022/07/03 09:11:36;;;;;;;0.40;0.40;;;31.60;1.00;;;;;;5071605;28;34337;-76
2022/07/03 09:14:06;;;;;;;1.77;0.45;;;31.50;1.00;;;;;;5068688;28;34187;-79
2022/07/03 09:16:35;;;;;;;2.92;0.47;;;31.40;1.00;;;;;;5071169;28;34210;-77
2022/07/03 09:19:04;;;;;;;1.67;0.60;;;31.50;1.00;;;;;;5070607;28;34417;-77
2022/07/03 09:21:48;;;;;;;1.17;0.73;;;31.70;1.00;;;;;;5060335;28;35522;-76
2022/07/03 09:24:14;;;;;;;1.25;0.65;;;31.70;1.00;;;;;;5089594;28;34160;-78
2022/07/03 09:26:51;;;;;;;0.98;0.68;;;31.80;1.00;;;;;;5070090;28;34262;-78
2022/07/03 09:29:17;;;;;;;0.60;0.60;;;32.00;1.00;;;;;;5048398;28;34444;-77
2022/07/03 09:31:55;;;;;;;1.58;0.60;;;32.10;1.00;;;;;;5063137;28;34181;-78
2022/07/03 09:34:22;;;;;;;2.15;0.50;;;32.20;1.00;;;;;;5063895;28;34357;-77
2022/07/03 09:36:50;;;;;;;2.72;0.60;;;32.20;1.00;;;;;;5080974;28;34393;-78
2022/07/03 09:39:21;;;;;;;1.92;0.60;;;31.70;1.00;;;;;;5083600;28;34225;-79
2022/07/03 09:41:52;;;;;;;1.38;0.70;;;31.30;1.00;;;;;;5082752;28;34459;-79
2022/07/03 09:44:41;;;;;;;1.10;0.60;;;31.20;1.00;;;;;;5074574;28;34339;-81
2022/07/03 09:47:18;;;;;;;1.70;0.70;;;31.30;1.00;;;;;;5071832;28;34180;-77
2022/07/03 09:50:00;;;;;;;2.20;0.50;;;31.40;1.00;;;;;;5082867;28;34052;-77
2022/07/03 09:52:30;;;;;;;0.80;0.50;;;31.30;1.00;;;;;;5082860;28;35981;-76
2022/07/03 09:54:58;;;;;;;0.52;0.40;;;31.40;1.00;;;;;;5064559;28;34180;-77
2022/07/03 09:57:26;;;;;;;0.50;0.50;;;31.30;1.00;;;;;;5062642;28;34332;-77
2022/07/03 10:00:11;;;;;;;0.85;0.60;;;31.30;1.00;;;;;;5080085;28;34051;-78
2022/07/03 10:02:52;;;;;;;1.58;0.50;;;31.60;1.00;;;;;;5079576;28;35685;-79
2022/07/03 10:05:19;;;;;;;2.85;0.60;;;31.70;1.00;;;;;;5064762;28;34346;-79
2022/07/03 10:07:55;;;;;;;0.63;0.50;;;31.80;1.00;;;;;;5090552;28;34418;-78
2022/07/03 10:10:23;;;;;;;2.33;0.60;;;31.80;1.00;;;;;;5098767;27;34122;-77
2022/07/03 10:12:51;;;;;;;0.40;0.40;;;32.00;1.00;;;;;;5065903;28;36288;-76
2022/07/03 10:15:18;;;;;;;0.50;0.50;;;32.20;1.00;;;;;;5086378;28;34127;-78
2022/07/03 10:17:48;;;;;;;0.43;0.40;;;32.10;1.00;;;;;;5085330;28;33987;-77
2022/07/03 10:20:17;;;;;;;1.10;0.40;;;32.00;1.00;;;;;;5088987;28;34407;-76
2022/07/03 10:22:47;;;;;;;0.45;0.40;;;31.90;1.00;;;;;;5076354;28;34620;-78
2022/07/03 10:25:15;;;;;;;1.50;0.70;;;31.80;1.00;;;;;;5078982;28;34134;-77
2022/07/03 10:27:41;;;;;;;1.15;0.60;;;32.00;1.00;;;;;;5073623;28;34139;-78
2022/07/03 10:30:08;;;;;;;0.73;0.45;;;32.00;1.00;;;;;;5080670;28;34545;-78
2022/07/03 10:32:37;;;;;;;0.40;0.40;;;32.10;1.00;;;;;;5066210;28;36598;-77
2022/07/03 10:35:03;;;;;;;0.52;0.50;;;31.90;1.00;;;;;;5083371;28;34184;-78
2022/07/03 10:37:41;;;;;;;1.40;0.40;;;31.70;1.00;;;;;;5058755;28;34283;-78
2022/07/03 10:46:10;;;;;;;4.57;0.75;;;31.70;1.00;;;;;;5092242;28;34258;-77
2022/07/03 10:48:57;;;;;;;0.68;0.60;;;31.90;1.00;;;;;;5068753;28;34436;-79
2022/07/03 10:51:23;;;;;;;0.40;0.40;;;32.00;1.00;;;;;;5058037;28;34513;-78
2022/07/03 10:53:50;;;;;;;3.85;0.77;;;31.90;1.00;;;;;;5070610;28;35631;-77
2022/07/03 10:56:16;;;;;;;0.40;0.40;;;32.10;1.00;;;;;;5093887;28;34136;-77
2022/07/03 10:58:57;;;;;;;1.10;0.55;;;31.90;1.00;;;;;;5095423;28;34345;-77
2022/07/03 11:01:28;;;;;;;2.50;0.60;;;32.10;1.00;;;;;;5080278;28;34116;-79
2022/07/03 11:03:57;;;;;;;0.73;0.45;;;31.70;1.00;;;;;;5085451;28;34305;-76
2022/07/03 11:06:58;;;;;;;0.43;0.43;;;31.40;1.00;;;;;;5065090;28;34372;-78
2022/07/03 11:09:24;;;;;;;0.60;0.50;;;31.10;1.00;;;;;;5070127;28;34166;-77
2022/07/03 11:11:57;;;;;;;2.00;0.60;;;31.20;1.00;;;;;;5083691;28;34044;-78
2022/07/03 11:14:28;;;;;;;1.05;0.68;;;31.20;1.00;;;;;;5069222;28;36585;-78
2022/07/03 11:17:19;;;;;;;2.55;0.60;;;31.50;1.00;;;;;;5068622;28;34466;-76
2022/07/03 11:20:23;;;;;;;1.30;0.50;;;31.40;1.00;;;;;;5065755;28;35217;-79
2022/07/03 11:22:49;;;;;;;0.82;0.38;;;31.50;1.00;;;;;;5084540;28;34122;-77
2022/07/03 11:25:17;;;;;;;0.30;0.30;;;31.70;1.00;;;;;;5055893;28;36712;-78
2022/07/03 11:27:43;;;;;;;2.10;0.75;;;31.70;1.00;;;;;;5081774;28;34308;-75
2022/07/03 11:30:12;;;;;;;1.60;0.43;;;31.70;1.00;;;;;;5074103;28;34345;-76
2022/07/03 11:32:49;;;;;;;1.45;0.30;;;31.70;1.00;;;;;;5084944;28;34155;-78
2022/07/03 11:35:46;;;;;;;0.90;0.60;;;31.70;1.00;;;;;;5084610;28;36148;-78
2022/07/03 11:38:15;;;;;;;0.55;0.40;;;31.70;1.00;;;;;;5077784;28;34134;-77
2022/07/03 11:40:44;;;;;;;1.00;0.60;;;31.50;1.00;;;;;;5081255;28;34364;-77
2022/07/03 11:43:11;;;;;;;0.55;0.50;;;31.20;1.00;;;;;;5097447;28;34183;-78
2022/07/03 11:45:39;;;;;;;1.42;0.40;;;30.80;1.00;;;;;;5090139;28;35545;-78
2022/07/03 11:48:09;;;;;;;0.73;0.70;;;30.70;1.00;;;;;;5079775;28;34446;-77
2022/07/03 11:50:44;;;;;;;1.98;0.70;;;30.60;1.00;;;;;;5092758;27;34255;-78
2022/07/03 11:53:27;;;;;;;0.55;0.50;;;30.80;1.00;;;;;;5068997;28;34125;-78
2022/07/03 11:55:57;;;;;;;1.88;0.60;;;30.90;1.00;;;;;;5085418;28;35205;-78
2022/07/03 11:58:25;;;;;;;1.10;0.55;;;31.00;1.00;;;;;;5070612;28;34321;-76
2022/07/03 12:00:52;;;;;;;0.73;0.70;;;31.10;1.00;;;;;;5077666;28;34241;-79
2022/07/03 12:03:26;;;;;;;0.90;0.38;;;31.30;1.00;;;;;;5082849;28;34420;-78
2022/07/03 12:05:55;;;;;;;0.63;0.60;;;31.40;1.00;;;;;;5064588;28;36292;-75
2022/07/03 12:08:23;;;;;;;2.20;0.52;;;31.40;1.00;;;;;;5050956;28;34190;-78
2022/07/03 12:10:49;;;;;;;1.55;0.50;;;31.50;1.00;;;;;;5077369;28;34370;-77
2022/07/03 12:13:21;;;;;;;1.40;0.60;;;31.70;1.00;;;;;;5089796;28;34301;-78
2022/07/03 12:15:47;;;;;;;0.38;0.38;;;31.80;1.00;;;;;;5089228;28;34916;-78
2022/07/03 12:18:15;;;;;;;0.75;0.60;;;31.60;1.00;;;;;;5067624;28;34137;-78
2022/07/03 12:20:41;;;;;;;1.98;0.80;;;31.50;1.00;;;;;;5070342;28;34414;-78
2022/07/03 12:23:07;;;;;;;1.45;0.70;;;31.60;1.00;;;;;;5070029;28;34164;-77
2022/07/03 12:25:40;;;;;;;0.50;0.50;;;31.60;1.00;;;;;;5090709;28;34414;-76
2022/07/03 12:28:09;;;;;;;0.63;0.50;;;31.70;1.00;;;;;;5070399;28;34521;-75
2022/07/03 12:30:37;;;;;;;0.57;0.43;;;31.70;1.00;;;;;;5073070;28;34067;-78
2022/07/03 12:33:04;;;;;;;1.92;0.60;;;31.70;1.00;;;;;;5077283;28;34020;-78
2022/07/03 12:35:30;;;;;;;1.50;0.65;;;31.70;1.00;;;;;;5086800;28;36924;-78
2022/07/03 12:37:57;;;;;;;1.77;0.35;;;31.80;1.00;;;;;;5100207;28;34356;-77
2022/07/03 12:40:23;;;;;;;0.65;0.47;;;31.90;1.00;;;;;;5094620;28;34186;-77
2022/07/03 12:42:52;;;;;;;3.75;0.60;;;31.80;1.00;;;;;;5082475;28;34281;-77
2022/07/03 12:45:24;;;;;;;0.45;0.45;;;31.70;1.00;;;;;;5084157;28;35622;-78
2022/07/03 12:48:05;;;;;;;0.43;0.40;;;31.80;1.00;;;;;;5074489;28;34063;-79
2022/07/03 12:50:47;;;;;;;2.70;0.40;;;31.70;1.00;;;;;;5073330;28;34190;-81
2022/07/03 12:53:27;;;;;;;1.33;0.55;;;31.70;1.00;;;;;;5084666;28;34485;-78
2022/07/03 12:55:53;;;;;;;0.40;0.40;;;31.70;1.00;;;;;;5083061;28;34490;-78
2022/07/03 13:01:04;;;;;;;0.73;0.45;;;31.60;1.00;;;;;;5082653;28;34322;-81
2022/07/03 13:03:34;;;;;;;0.40;0.40;;;31.50;1.00;;;;;;5066684;28;34135;-78
2022/07/03 13:06:00;;;;;;;0.63;0.50;;;31.50;1.00;;;;;;5102585;28;34523;-76
2022/07/03 13:08:27;;;;;;;1.20;0.65;;;31.20;1.00;;;;;;5094117;28;34364;-77
2022/07/03 13:10:57;;;;;;;1.23;0.50;;;31.00;1.00;;;;;;5085295;28;34157;-80
2022/07/03 13:13:23;;;;;;;1.88;0.52;;;30.90;1.00;;;;;;5085131;28;34626;-79
2022/07/03 13:15:49;;;;;;;2.45;0.50;;;31.00;1.00;;;;;;5083007;28;35717;-79
2022/07/03 13:18:15;;;;;;;1.65;0.57;;;31.00;1.00;;;;;;5084716;28;34182;-79
2022/07/03 13:20:41;;;;;;;1.80;0.50;;;31.10;1.00;;;;;;5083966;28;34147;-79
2022/07/03 13:23:07;;;;;;;1.77;0.50;;;31.00;1.00;;;;;;5083374;28;34516;-77